sensor_id;sensor_type;location;lat;lon;timestamp;P1;durP1;ratioP1;P2;durP2;ratioP2
23474;SDS011;11910;52.086;21.066;2023-12-04T00:01:13;39.88;;;25.02;;
23474;SDS011;11910;52.086;21.066;2023-12-04T00:03:39;36.67;;;24.55;;
23474;SDS011;11910;52.086;21.066;2023-12-04T00:06:05;36.25;;;24.27;;
23474;SDS011;11910;52.086;21.066;2023-12-04T00:08:32;38.90;;;24.70;;
23474;SDS011;11910;52.086;21.066;2023-12-04T00:10:58;37.60;;;23.95;;
23474;SDS011;11910;52.086;21.066;2023-12-04T00:13:24;39.72;;;24.08;;
23474;SDS011;11910;52.086;21.066;2023-12-04T00:15:50;37.53;;;23.77;;
23474;SDS011;11910;52.086;21.066;2023-12-04T00:18:16;39.17;;;25.30;;
23474;SDS011;11910;52.086;21.066;2023-12-04T00:20:42;37.47;;;24.80;;
23474;SDS011;11910;52.086;21.066;2023-12-04T00:23:08;41.35;;;26.00;;
23474;SDS011;11910;52.086;21.066;2023-12-04T00:25:34;39.00;;;24.35;;
23474;SDS011;11910;52.086;21.066;2023-12-04T00:27:59;36.40;;;24.55;;
23474;SDS011;11910;52.086;21.066;2023-12-04T00:30:26;38.25;;;24.20;;
23474;SDS011;11910;52.086;21.066;2023-12-04T00:32:52;38.17;;;22.85;;
23474;SDS011;11910;52.086;21.066;2023-12-04T00:35:18;40.15;;;26.08;;
23474;SDS011;11910;52.086;21.066;2023-12-04T00:37:44;39.00;;;25.77;;
23474;SDS011;11910;52.086;21.066;2023-12-04T00:40:10;39.58;;;25.77;;
23474;SDS011;11910;52.086;21.066;2023-12-04T00:42:36;42.45;;;26.63;;
23474;SDS011;11910;52.086;21.066;2023-12-04T00:45:02;37.70;;;24.45;;
23474;SDS011;11910;52.086;21.066;2023-12-04T00:47:29;37.55;;;23.75;;
23474;SDS011;11910;52.086;21.066;2023-12-04T00:49:55;40.22;;;25.75;;
23474;SDS011;11910;52.086;21.066;2023-12-04T00:52:21;40.00;;;24.45;;
23474;SDS011;11910;52.086;21.066;2023-12-04T00:54:47;40.28;;;25.30;;
23474;SDS011;11910;52.086;21.066;2023-12-04T00:57:13;39.03;;;24.83;;
23474;SDS011;11910;52.086;21.066;2023-12-04T00:59:39;38.42;;;24.73;;
23474;SDS011;11910;52.086;21.066;2023-12-04T01:02:06;42.13;;;26.88;;
23474;SDS011;11910;52.086;21.066;2023-12-04T01:04:32;41.63;;;26.55;;
23474;SDS011;11910;52.086;21.066;2023-12-04T01:06:58;39.33;;;24.70;;
23474;SDS011;11910;52.086;21.066;2023-12-04T01:09:24;35.30;;;23.40;;
23474;SDS011;11910;52.086;21.066;2023-12-04T01:11:52;36.67;;;23.95;;
23474;SDS011;11910;52.086;21.066;2023-12-04T01:14:18;36.78;;;22.98;;
23474;SDS011;11910;52.086;21.066;2023-12-04T01:16:44;39.78;;;24.77;;
23474;SDS011;11910;52.086;21.066;2023-12-04T01:19:10;32.95;;;22.05;;
23474;SDS011;11910;52.086;21.066;2023-12-04T01:21:36;36.80;;;24.58;;
23474;SDS011;11910;52.086;21.066;2023-12-04T01:24:02;35.83;;;23.20;;
23474;SDS011;11910;52.086;21.066;2023-12-04T01:26:28;37.03;;;23.52;;
23474;SDS011;11910;52.086;21.066;2023-12-04T01:28:54;37.33;;;24.88;;
23474;SDS011;11910;52.086;21.066;2023-12-04T01:31:20;36.35;;;24.77;;
23474;SDS011;11910;52.086;21.066;2023-12-04T01:33:46;37.53;;;23.58;;
23474;SDS011;11910;52.086;21.066;2023-12-04T01:36:12;38.67;;;22.90;;
23474;SDS011;11910;52.086;21.066;2023-12-04T01:38:38;35.00;;;23.88;;
23474;SDS011;11910;52.086;21.066;2023-12-04T01:41:04;34.95;;;22.77;;
23474;SDS011;11910;52.086;21.066;2023-12-04T01:43:31;39.00;;;23.40;;
23474;SDS011;11910;52.086;21.066;2023-12-04T01:45:57;35.85;;;22.02;;
23474;SDS011;11910;52.086;21.066;2023-12-04T01:48:24;35.08;;;24.38;;
23474;SDS011;11910;52.086;21.066;2023-12-04T01:50:50;31.67;;;20.13;;
23474;SDS011;11910;52.086;21.066;2023-12-04T01:53:17;37.15;;;24.15;;
23474;SDS011;11910;52.086;21.066;2023-12-04T01:55:43;36.83;;;22.90;;
23474;SDS011;11910;52.086;21.066;2023-12-04T01:58:09;32.05;;;20.10;;
23474;SDS011;11910;52.086;21.066;2023-12-04T02:00:35;33.80;;;21.83;;
23474;SDS011;11910;52.086;21.066;2023-12-04T02:03:01;27.88;;;19.33;;
23474;SDS011;11910;52.086;21.066;2023-12-04T02:05:27;27.90;;;18.90;;
23474;SDS011;11910;52.086;21.066;2023-12-04T02:07:54;26.42;;;18.42;;
23474;SDS011;11910;52.086;21.066;2023-12-04T02:10:20;25.75;;;18.63;;
23474;SDS011;11910;52.086;21.066;2023-12-04T02:12:47;27.42;;;18.58;;
23474;SDS011;11910;52.086;21.066;2023-12-04T02:15:13;26.25;;;18.27;;
23474;SDS011;11910;52.086;21.066;2023-12-04T02:17:39;24.90;;;18.65;;
23474;SDS011;11910;52.086;21.066;2023-12-04T02:20:05;27.48;;;18.25;;
23474;SDS011;11910;52.086;21.066;2023-12-04T02:22:32;21.65;;;12.38;;
23474;SDS011;11910;52.086;21.066;2023-12-04T02:24:58;22.10;;;16.52;;
23474;SDS011;11910;52.086;21.066;2023-12-04T02:27:26;21.02;;;15.38;;
23474;SDS011;11910;52.086;21.066;2023-12-04T02:29:56;19.70;;;14.32;;
23474;SDS011;11910;52.086;21.066;2023-12-04T02:32:23;21.05;;;15.68;;
23474;SDS011;11910;52.086;21.066;2023-12-04T02:34:50;22.58;;;15.90;;
23474;SDS011;11910;52.086;21.066;2023-12-04T02:37:17;21.23;;;15.02;;
23474;SDS011;11910;52.086;21.066;2023-12-04T02:39:43;21.05;;;15.52;;
23474;SDS011;11910;52.086;21.066;2023-12-04T02:42:09;22.27;;;15.73;;
23474;SDS011;11910;52.086;21.066;2023-12-04T02:44:35;19.40;;;13.80;;
23474;SDS011;11910;52.086;21.066;2023-12-04T02:47:01;22.30;;;15.07;;
23474;SDS011;11910;52.086;21.066;2023-12-04T02:49:27;19.60;;;13.68;;
23474;SDS011;11910;52.086;21.066;2023-12-04T02:51:53;21.30;;;14.90;;
23474;SDS011;11910;52.086;21.066;2023-12-04T02:54:19;20.25;;;15.05;;
23474;SDS011;11910;52.086;21.066;2023-12-04T02:56:45;21.10;;;14.65;;
23474;SDS011;11910;52.086;21.066;2023-12-04T02:59:11;19.52;;;14.45;;
23474;SDS011;11910;52.086;21.066;2023-12-04T03:01:37;23.80;;;16.67;;
23474;SDS011;11910;52.086;21.066;2023-12-04T03:04:03;22.50;;;16.52;;
23474;SDS011;11910;52.086;21.066;2023-12-04T03:06:29;21.73;;;14.57;;
23474;SDS011;11910;52.086;21.066;2023-12-04T03:08:55;22.73;;;16.13;;
23474;SDS011;11910;52.086;21.066;2023-12-04T03:11:22;19.92;;;14.68;;
23474;SDS011;11910;52.086;21.066;2023-12-04T03:13:48;19.83;;;14.77;;
23474;SDS011;11910;52.086;21.066;2023-12-04T03:16:15;19.58;;;13.10;;
23474;SDS011;11910;52.086;21.066;2023-12-04T03:18:42;21.85;;;15.00;;
23474;SDS011;11910;52.086;21.066;2023-12-04T03:21:08;22.40;;;14.45;;
23474;SDS011;11910;52.086;21.066;2023-12-04T03:23:34;23.38;;;15.18;;
23474;SDS011;11910;52.086;21.066;2023-12-04T03:26:00;18.33;;;13.63;;
23474;SDS011;11910;52.086;21.066;2023-12-04T03:28:26;21.25;;;14.50;;
23474;SDS011;11910;52.086;21.066;2023-12-04T03:30:52;20.17;;;14.10;;
23474;SDS011;11910;52.086;21.066;2023-12-04T03:33:18;21.40;;;14.57;;
23474;SDS011;11910;52.086;21.066;2023-12-04T03:35:44;20.50;;;15.00;;
23474;SDS011;11910;52.086;21.066;2023-12-04T03:38:10;20.30;;;15.27;;
23474;SDS011;11910;52.086;21.066;2023-12-04T03:40:36;19.45;;;13.65;;
23474;SDS011;11910;52.086;21.066;2023-12-04T03:43:02;21.42;;;14.77;;
23474;SDS011;11910;52.086;21.066;2023-12-04T03:45:28;23.30;;;15.88;;
23474;SDS011;11910;52.086;21.066;2023-12-04T03:47:53;19.63;;;13.73;;
23474;SDS011;11910;52.086;21.066;2023-12-04T03:50:19;21.00;;;14.25;;
23474;SDS011;11910;52.086;21.066;2023-12-04T03:52:45;22.27;;;15.65;;
23474;SDS011;11910;52.086;21.066;2023-12-04T03:55:11;20.02;;;14.93;;
23474;SDS011;11910;52.086;21.066;2023-12-04T03:57:37;22.98;;;15.73;;
23474;SDS011;11910;52.086;21.066;2023-12-04T04:00:04;21.02;;;14.52;;
23474;SDS011;11910;52.086;21.066;2023-12-04T04:02:30;21.52;;;15.80;;
23474;SDS011;11910;52.086;21.066;2023-12-04T04:04:56;23.70;;;15.85;;
23474;SDS011;11910;52.086;21.066;2023-12-04T04:07:22;20.95;;;14.77;;
23474;SDS011;11910;52.086;21.066;2023-12-04T04:09:48;22.73;;;15.65;;
23474;SDS011;11910;52.086;21.066;2023-12-04T04:12:14;23.67;;;15.77;;
23474;SDS011;11910;52.086;21.066;2023-12-04T04:14:40;22.65;;;16.17;;
23474;SDS011;11910;52.086;21.066;2023-12-04T04:17:06;20.63;;;15.65;;
23474;SDS011;11910;52.086;21.066;2023-12-04T04:19:32;22.60;;;16.40;;
23474;SDS011;11910;52.086;21.066;2023-12-04T04:21:58;22.02;;;16.05;;
23474;SDS011;11910;52.086;21.066;2023-12-04T04:24:24;24.83;;;16.63;;
23474;SDS011;11910;52.086;21.066;2023-12-04T04:26:50;21.63;;;13.98;;
23474;SDS011;11910;52.086;21.066;2023-12-04T04:29:16;23.77;;;15.40;;
23474;SDS011;11910;52.086;21.066;2023-12-04T04:31:42;22.90;;;16.45;;
23474;SDS011;11910;52.086;21.066;2023-12-04T04:34:08;21.52;;;15.73;;
23474;SDS011;11910;52.086;21.066;2023-12-04T04:36:34;19.00;;;14.13;;
23474;SDS011;11910;52.086;21.066;2023-12-04T04:39:00;22.50;;;15.82;;
23474;SDS011;11910;52.086;21.066;2023-12-04T04:41:27;22.35;;;15.85;;
23474;SDS011;11910;52.086;21.066;2023-12-04T04:43:53;20.60;;;15.13;;
23474;SDS011;11910;52.086;21.066;2023-12-04T04:46:19;22.58;;;15.98;;
23474;SDS011;11910;52.086;21.066;2023-12-04T04:48:45;21.27;;;15.80;;
23474;SDS011;11910;52.086;21.066;2023-12-04T04:51:11;22.52;;;16.08;;
23474;SDS011;11910;52.086;21.066;2023-12-04T04:53:37;22.67;;;16.13;;
23474;SDS011;11910;52.086;21.066;2023-12-04T04:56:04;24.10;;;16.65;;
23474;SDS011;11910;52.086;21.066;2023-12-04T04:58:30;22.58;;;15.95;;
23474;SDS011;11910;52.086;21.066;2023-12-04T05:00:56;26.80;;;16.63;;
23474;SDS011;11910;52.086;21.066;2023-12-04T05:03:22;24.50;;;17.52;;
23474;SDS011;11910;52.086;21.066;2023-12-04T05:05:48;24.30;;;16.35;;
23474;SDS011;11910;52.086;21.066;2023-12-04T05:08:14;26.17;;;15.75;;
23474;SDS011;11910;52.086;21.066;2023-12-04T05:10:40;23.98;;;16.67;;
23474;SDS011;11910;52.086;21.066;2023-12-04T05:13:07;25.25;;;17.20;;
23474;SDS011;11910;52.086;21.066;2023-12-04T05:15:33;24.88;;;17.10;;
23474;SDS011;11910;52.086;21.066;2023-12-04T05:17:59;26.92;;;18.25;;
23474;SDS011;11910;52.086;21.066;2023-12-04T05:20:25;25.88;;;18.23;;
23474;SDS011;11910;52.086;21.066;2023-12-04T05:22:51;27.73;;;17.85;;
23474;SDS011;11910;52.086;21.066;2023-12-04T05:25:17;26.48;;;17.25;;
23474;SDS011;11910;52.086;21.066;2023-12-04T05:27:43;26.95;;;19.15;;
23474;SDS011;11910;52.086;21.066;2023-12-04T05:30:10;27.50;;;19.27;;
23474;SDS011;11910;52.086;21.066;2023-12-04T05:32:36;27.02;;;18.75;;
23474;SDS011;11910;52.086;21.066;2023-12-04T05:35:02;25.67;;;18.27;;
23474;SDS011;11910;52.086;21.066;2023-12-04T05:37:28;27.92;;;17.88;;
23474;SDS011;11910;52.086;21.066;2023-12-04T05:39:54;25.42;;;18.23;;
23474;SDS011;11910;52.086;21.066;2023-12-04T05:42:20;26.55;;;18.13;;
23474;SDS011;11910;52.086;21.066;2023-12-04T05:44:46;26.15;;;18.70;;
23474;SDS011;11910;52.086;21.066;2023-12-04T05:47:12;25.33;;;18.75;;
23474;SDS011;11910;52.086;21.066;2023-12-04T05:49:39;29.58;;;19.55;;
23474;SDS011;11910;52.086;21.066;2023-12-04T05:52:05;30.83;;;19.60;;
23474;SDS011;11910;52.086;21.066;2023-12-04T05:54:31;30.23;;;20.15;;
23474;SDS011;11910;52.086;21.066;2023-12-04T05:56:57;26.60;;;19.17;;
23474;SDS011;11910;52.086;21.066;2023-12-04T05:59:23;26.33;;;18.98;;
23474;SDS011;11910;52.086;21.066;2023-12-04T06:01:49;29.80;;;20.00;;
23474;SDS011;11910;52.086;21.066;2023-12-04T06:04:15;29.25;;;20.05;;
23474;SDS011;11910;52.086;21.066;2023-12-04T06:06:42;27.23;;;19.20;;
23474;SDS011;11910;52.086;21.066;2023-12-04T06:09:08;27.42;;;18.67;;
23474;SDS011;11910;52.086;21.066;2023-12-04T06:11:34;26.30;;;17.92;;
23474;SDS011;11910;52.086;21.066;2023-12-04T06:14:00;27.08;;;18.95;;
23474;SDS011;11910;52.086;21.066;2023-12-04T06:16:26;29.35;;;19.40;;
23474;SDS011;11910;52.086;21.066;2023-12-04T06:18:52;27.42;;;19.45;;
23474;SDS011;11910;52.086;21.066;2023-12-04T06:21:18;26.83;;;18.67;;
23474;SDS011;11910;52.086;21.066;2023-12-04T06:23:44;28.00;;;19.13;;
23474;SDS011;11910;52.086;21.066;2023-12-04T06:26:10;27.85;;;18.98;;
23474;SDS011;11910;52.086;21.066;2023-12-04T06:28:37;28.02;;;19.75;;
23474;SDS011;11910;52.086;21.066;2023-12-04T06:31:03;27.23;;;18.75;;
23474;SDS011;11910;52.086;21.066;2023-12-04T06:33:29;28.08;;;19.55;;
23474;SDS011;11910;52.086;21.066;2023-12-04T06:35:55;31.17;;;19.05;;
23474;SDS011;11910;52.086;21.066;2023-12-04T06:38:23;27.60;;;19.75;;
23474;SDS011;11910;52.086;21.066;2023-12-04T06:40:49;26.00;;;18.75;;
23474;SDS011;11910;52.086;21.066;2023-12-04T06:43:16;28.98;;;19.55;;
23474;SDS011;11910;52.086;21.066;2023-12-04T06:45:43;30.27;;;20.30;;
23474;SDS011;11910;52.086;21.066;2023-12-04T06:48:10;29.52;;;18.80;;
23474;SDS011;11910;52.086;21.066;2023-12-04T06:50:37;33.90;;;19.83;;
23474;SDS011;11910;52.086;21.066;2023-12-04T06:53:05;30.00;;;20.00;;
23474;SDS011;11910;52.086;21.066;2023-12-04T06:55:31;33.47;;;21.13;;
23474;SDS011;11910;52.086;21.066;2023-12-04T06:57:57;36.67;;;21.27;;
23474;SDS011;11910;52.086;21.066;2023-12-04T07:00:23;42.25;;;22.27;;
23474;SDS011;11910;52.086;21.066;2023-12-04T07:02:49;47.45;;;29.75;;
23474;SDS011;11910;52.086;21.066;2023-12-04T07:05:15;35.97;;;23.85;;
23474;SDS011;11910;52.086;21.066;2023-12-04T07:07:41;37.35;;;23.52;;
23474;SDS011;11910;52.086;21.066;2023-12-04T07:10:07;35.17;;;21.67;;
23474;SDS011;11910;52.086;21.066;2023-12-04T07:12:33;34.42;;;22.27;;
23474;SDS011;11910;52.086;21.066;2023-12-04T07:14:59;33.75;;;20.92;;
23474;SDS011;11910;52.086;21.066;2023-12-04T07:17:25;33.15;;;20.58;;
23474;SDS011;11910;52.086;21.066;2023-12-04T07:19:51;37.60;;;21.52;;
23474;SDS011;11910;52.086;21.066;2023-12-04T07:22:17;35.63;;;22.23;;
23474;SDS011;11910;52.086;21.066;2023-12-04T07:24:43;33.30;;;21.45;;
23474;SDS011;11910;52.086;21.066;2023-12-04T07:27:09;34.45;;;20.77;;
23474;SDS011;11910;52.086;21.066;2023-12-04T07:29:35;33.15;;;20.48;;
23474;SDS011;11910;52.086;21.066;2023-12-04T07:32:03;32.08;;;20.85;;
23474;SDS011;11910;52.086;21.066;2023-12-04T07:34:29;32.42;;;21.10;;
23474;SDS011;11910;52.086;21.066;2023-12-04T07:36:55;33.33;;;21.85;;
23474;SDS011;11910;52.086;21.066;2023-12-04T07:39:21;32.92;;;22.05;;
23474;SDS011;11910;52.086;21.066;2023-12-04T07:41:47;33.40;;;22.13;;
23474;SDS011;11910;52.086;21.066;2023-12-04T07:44:13;33.05;;;21.80;;
23474;SDS011;11910;52.086;21.066;2023-12-04T07:46:39;31.63;;;21.13;;
23474;SDS011;11910;52.086;21.066;2023-12-04T07:49:04;33.35;;;20.40;;
23474;SDS011;11910;52.086;21.066;2023-12-04T07:51:31;35.50;;;20.70;;
23474;SDS011;11910;52.086;21.066;2023-12-04T07:53:57;31.75;;;20.60;;
23474;SDS011;11910;52.086;21.066;2023-12-04T07:56:23;32.65;;;20.40;;
23474;SDS011;11910;52.086;21.066;2023-12-04T07:58:49;34.85;;;21.45;;
23474;SDS011;11910;52.086;21.066;2023-12-04T08:01:16;33.75;;;20.90;;
23474;SDS011;11910;52.086;21.066;2023-12-04T08:03:42;34.03;;;20.63;;
23474;SDS011;11910;52.086;21.066;2023-12-04T08:06:08;34.80;;;21.70;;
23474;SDS011;11910;52.086;21.066;2023-12-04T08:08:34;35.33;;;21.77;;
23474;SDS011;11910;52.086;21.066;2023-12-04T08:11:00;37.38;;;22.52;;
23474;SDS011;11910;52.086;21.066;2023-12-04T08:13:26;34.58;;;21.13;;
23474;SDS011;11910;52.086;21.066;2023-12-04T08:15:52;31.35;;;20.70;;
23474;SDS011;11910;52.086;21.066;2023-12-04T08:18:18;31.15;;;20.70;;
23474;SDS011;11910;52.086;21.066;2023-12-04T08:20:44;31.83;;;20.92;;
23474;SDS011;11910;52.086;21.066;2023-12-04T08:23:11;31.25;;;20.92;;
23474;SDS011;11910;52.086;21.066;2023-12-04T08:25:37;31.73;;;20.27;;
23474;SDS011;11910;52.086;21.066;2023-12-04T08:28:03;30.75;;;20.33;;
23474;SDS011;11910;52.086;21.066;2023-12-04T08:30:30;37.53;;;22.15;;
23474;SDS011;11910;52.086;21.066;2023-12-04T08:32:56;35.25;;;22.77;;
23474;SDS011;11910;52.086;21.066;2023-12-04T08:35:22;34.30;;;21.25;;
23474;SDS011;11910;52.086;21.066;2023-12-04T08:37:48;35.13;;;21.23;;
23474;SDS011;11910;52.086;21.066;2023-12-04T08:40:14;33.17;;;20.65;;
23474;SDS011;11910;52.086;21.066;2023-12-04T08:42:40;32.65;;;21.77;;
23474;SDS011;11910;52.086;21.066;2023-12-04T08:45:06;32.00;;;20.80;;
23474;SDS011;11910;52.086;21.066;2023-12-04T08:47:33;32.92;;;22.13;;
23474;SDS011;11910;52.086;21.066;2023-12-04T08:49:59;34.10;;;21.17;;
23474;SDS011;11910;52.086;21.066;2023-12-04T08:52:26;41.92;;;22.02;;
23474;SDS011;11910;52.086;21.066;2023-12-04T08:54:52;31.95;;;19.65;;
23474;SDS011;11910;52.086;21.066;2023-12-04T08:57:19;29.80;;;19.25;;
23474;SDS011;11910;52.086;21.066;2023-12-04T08:59:45;31.90;;;20.48;;
23474;SDS011;11910;52.086;21.066;2023-12-04T09:02:11;30.60;;;19.70;;
23474;SDS011;11910;52.086;21.066;2023-12-04T09:04:37;32.38;;;20.15;;
23474;SDS011;11910;52.086;21.066;2023-12-04T09:07:03;33.17;;;19.77;;
23474;SDS011;11910;52.086;21.066;2023-12-04T09:09:29;32.88;;;20.35;;
23474;SDS011;11910;52.086;21.066;2023-12-04T09:11:55;36.08;;;20.83;;
23474;SDS011;11910;52.086;21.066;2023-12-04T09:14:21;32.17;;;20.05;;
23474;SDS011;11910;52.086;21.066;2023-12-04T09:16:47;29.27;;;18.02;;
23474;SDS011;11910;52.086;21.066;2023-12-04T09:19:13;30.35;;;20.23;;
23474;SDS011;11910;52.086;21.066;2023-12-04T09:21:39;30.05;;;18.90;;
23474;SDS011;11910;52.086;21.066;2023-12-04T09:24:06;33.17;;;20.05;;
23474;SDS011;11910;52.086;21.066;2023-12-04T09:26:32;29.90;;;18.27;;
23474;SDS011;11910;52.086;21.066;2023-12-04T09:28:58;28.52;;;19.35;;
23474;SDS011;11910;52.086;21.066;2023-12-04T09:31:23;31.90;;;18.77;;
23474;SDS011;11910;52.086;21.066;2023-12-04T09:33:49;32.45;;;19.55;;
23474;SDS011;11910;52.086;21.066;2023-12-04T09:36:15;29.40;;;17.55;;
23474;SDS011;11910;52.086;21.066;2023-12-04T09:38:42;31.48;;;19.85;;
23474;SDS011;11910;52.086;21.066;2023-12-04T09:41:09;28.75;;;18.02;;
23474;SDS011;11910;52.086;21.066;2023-12-04T09:43:36;31.85;;;19.85;;
23474;SDS011;11910;52.086;21.066;2023-12-04T09:46:03;30.90;;;19.27;;
23474;SDS011;11910;52.086;21.066;2023-12-04T09:48:29;30.83;;;18.77;;
23474;SDS011;11910;52.086;21.066;2023-12-04T09:50:55;36.92;;;22.92;;
23474;SDS011;11910;52.086;21.066;2023-12-04T09:53:23;35.42;;;21.50;;
23474;SDS011;11910;52.086;21.066;2023-12-04T09:55:50;36.58;;;22.80;;
23474;SDS011;11910;52.086;21.066;2023-12-04T09:58:17;36.88;;;22.48;;
23474;SDS011;11910;52.086;21.066;2023-12-04T10:00:45;36.53;;;22.83;;
23474;SDS011;11910;52.086;21.066;2023-12-04T10:03:11;37.63;;;22.38;;
23474;SDS011;11910;52.086;21.066;2023-12-04T10:05:40;37.95;;;22.88;;
23474;SDS011;11910;52.086;21.066;2023-12-04T10:08:08;37.85;;;23.25;;
23474;SDS011;11910;52.086;21.066;2023-12-04T10:10:38;39.78;;;23.85;;
23474;SDS011;11910;52.086;21.066;2023-12-04T10:13:04;38.60;;;23.33;;
23474;SDS011;11910;52.086;21.066;2023-12-04T10:15:31;42.03;;;24.20;;
23474;SDS011;11910;52.086;21.066;2023-12-04T10:17:57;40.45;;;24.98;;
23474;SDS011;11910;52.086;21.066;2023-12-04T10:20:24;40.97;;;22.38;;
23474;SDS011;11910;52.086;21.066;2023-12-04T10:22:57;37.03;;;22.63;;
23474;SDS011;11910;52.086;21.066;2023-12-04T10:25:24;39.83;;;23.17;;
23474;SDS011;11910;52.086;21.066;2023-12-04T10:27:51;36.38;;;21.00;;
23474;SDS011;11910;52.086;21.066;2023-12-04T10:30:22;38.20;;;23.45;;
23474;SDS011;11910;52.086;21.066;2023-12-04T10:32:55;37.67;;;22.30;;
23474;SDS011;11910;52.086;21.066;2023-12-04T10:35:21;38.13;;;23.45;;
23474;SDS011;11910;52.086;21.066;2023-12-04T10:37:48;43.38;;;26.33;;
23474;SDS011;11910;52.086;21.066;2023-12-04T10:40:22;39.42;;;22.75;;
23474;SDS011;11910;52.086;21.066;2023-12-04T10:42:48;37.17;;;22.40;;
23474;SDS011;11910;52.086;21.066;2023-12-04T10:45:14;34.00;;;19.90;;
23474;SDS011;11910;52.086;21.066;2023-12-04T10:47:40;35.92;;;21.67;;
23474;SDS011;11910;52.086;21.066;2023-12-04T10:50:06;37.78;;;22.33;;
23474;SDS011;11910;52.086;21.066;2023-12-04T10:52:32;33.70;;;20.95;;
23474;SDS011;11910;52.086;21.066;2023-12-04T10:54:59;36.55;;;21.08;;
23474;SDS011;11910;52.086;21.066;2023-12-04T10:57:27;34.28;;;21.92;;
23474;SDS011;11910;52.086;21.066;2023-12-04T10:59:57;33.17;;;19.17;;
23474;SDS011;11910;52.086;21.066;2023-12-04T11:02:25;35.45;;;20.73;;
23474;SDS011;11910;52.086;21.066;2023-12-04T11:04:52;32.55;;;20.70;;
23474;SDS011;11910;52.086;21.066;2023-12-04T11:07:20;32.05;;;20.65;;
23474;SDS011;11910;52.086;21.066;2023-12-04T11:09:46;32.58;;;19.77;;
23474;SDS011;11910;52.086;21.066;2023-12-04T11:12:14;33.00;;;19.55;;
23474;SDS011;11910;52.086;21.066;2023-12-04T11:14:44;30.13;;;19.10;;
23474;SDS011;11910;52.086;21.066;2023-12-04T11:17:13;31.73;;;19.02;;
23474;SDS011;11910;52.086;21.066;2023-12-04T11:22:06;30.33;;;18.75;;
23474;SDS011;11910;52.086;21.066;2023-12-04T11:24:33;30.15;;;18.80;;
23474;SDS011;11910;52.086;21.066;2023-12-04T11:27:00;32.50;;;18.77;;
23474;SDS011;11910;52.086;21.066;2023-12-04T11:29:26;30.83;;;19.15;;
23474;SDS011;11910;52.086;21.066;2023-12-04T11:31:52;29.98;;;19.38;;
23474;SDS011;11910;52.086;21.066;2023-12-04T11:34:19;31.88;;;19.65;;
23474;SDS011;11910;52.086;21.066;2023-12-04T11:36:45;29.33;;;17.77;;
23474;SDS011;11910;52.086;21.066;2023-12-04T11:39:11;25.30;;;16.73;;
23474;SDS011;11910;52.086;21.066;2023-12-04T11:41:37;27.33;;;16.42;;
23474;SDS011;11910;52.086;21.066;2023-12-04T11:44:03;26.80;;;15.60;;
23474;SDS011;11910;52.086;21.066;2023-12-04T11:46:36;25.05;;;14.95;;
23474;SDS011;11910;52.086;21.066;2023-12-04T11:51:53;27.35;;;16.35;;
23474;SDS011;11910;52.086;21.066;2023-12-04T11:54:21;24.85;;;15.25;;
23474;SDS011;11910;52.086;21.066;2023-12-04T11:56:59;26.45;;;15.05;;
23474;SDS011;11910;52.086;21.066;2023-12-04T11:59:37;23.92;;;15.05;;
23474;SDS011;11910;52.086;21.066;2023-12-04T12:02:04;24.25;;;15.95;;
23474;SDS011;11910;52.086;21.066;2023-12-04T12:04:33;25.38;;;16.45;;
23474;SDS011;11910;52.086;21.066;2023-12-04T12:06:59;25.48;;;16.60;;
23474;SDS011;11910;52.086;21.066;2023-12-04T12:09:28;25.25;;;16.83;;
23474;SDS011;11910;52.086;21.066;2023-12-04T12:11:54;26.92;;;17.17;;
23474;SDS011;11910;52.086;21.066;2023-12-04T12:14:21;26.67;;;17.05;;
23474;SDS011;11910;52.086;21.066;2023-12-04T12:16:46;25.42;;;16.27;;
23474;SDS011;11910;52.086;21.066;2023-12-04T12:19:12;25.73;;;16.73;;
23474;SDS011;11910;52.086;21.066;2023-12-04T12:21:38;25.95;;;16.73;;
23474;SDS011;11910;52.086;21.066;2023-12-04T12:24:05;25.05;;;16.52;;
23474;SDS011;11910;52.086;21.066;2023-12-04T12:26:34;27.23;;;17.63;;
23474;SDS011;11910;52.086;21.066;2023-12-04T12:29:00;25.95;;;16.38;;
23474;SDS011;11910;52.086;21.066;2023-12-04T12:31:25;26.52;;;17.48;;
23474;SDS011;11910;52.086;21.066;2023-12-04T12:33:51;25.75;;;16.73;;
23474;SDS011;11910;52.086;21.066;2023-12-04T12:36:17;25.10;;;16.67;;
23474;SDS011;11910;52.086;21.066;2023-12-04T12:38:43;23.67;;;15.57;;
23474;SDS011;11910;52.086;21.066;2023-12-04T12:41:14;23.92;;;15.90;;
23474;SDS011;11910;52.086;21.066;2023-12-04T12:43:43;26.25;;;16.45;;
23474;SDS011;11910;52.086;21.066;2023-12-04T12:46:13;25.93;;;15.67;;
23474;SDS011;11910;52.086;21.066;2023-12-04T12:48:39;24.70;;;15.43;;
23474;SDS011;11910;52.086;21.066;2023-12-04T12:51:07;26.50;;;16.42;;
23474;SDS011;11910;52.086;21.066;2023-12-04T12:53:36;26.70;;;16.70;;
23474;SDS011;11910;52.086;21.066;2023-12-04T12:56:02;27.63;;;16.73;;
23474;SDS011;11910;52.086;21.066;2023-12-04T12:58:28;27.73;;;17.30;;
23474;SDS011;11910;52.086;21.066;2023-12-04T13:00:54;27.40;;;17.20;;
23474;SDS011;11910;52.086;21.066;2023-12-04T13:03:26;28.05;;;17.60;;
23474;SDS011;11910;52.086;21.066;2023-12-04T13:05:52;30.55;;;19.13;;
23474;SDS011;11910;52.086;21.066;2023-12-04T13:08:18;30.55;;;19.70;;
23474;SDS011;11910;52.086;21.066;2023-12-04T13:10:44;31.38;;;18.77;;
23474;SDS011;11910;52.086;21.066;2023-12-04T13:13:15;27.83;;;17.77;;
23474;SDS011;11910;52.086;21.066;2023-12-04T13:15:41;26.95;;;17.08;;
23474;SDS011;11910;52.086;21.066;2023-12-04T13:18:07;30.27;;;17.70;;
23474;SDS011;11910;52.086;21.066;2023-12-04T13:20:33;28.40;;;18.38;;
23474;SDS011;11910;52.086;21.066;2023-12-04T13:22:59;28.83;;;18.20;;
23474;SDS011;11910;52.086;21.066;2023-12-04T13:25:26;29.63;;;18.45;;
23474;SDS011;11910;52.086;21.066;2023-12-04T13:27:51;28.25;;;18.23;;
23474;SDS011;11910;52.086;21.066;2023-12-04T13:30:18;28.52;;;17.45;;
23474;SDS011;11910;52.086;21.066;2023-12-04T13:32:45;26.65;;;17.10;;
23474;SDS011;11910;52.086;21.066;2023-12-04T13:35:11;28.60;;;17.55;;
23474;SDS011;11910;52.086;21.066;2023-12-04T13:37:36;28.80;;;17.83;;
23474;SDS011;11910;52.086;21.066;2023-12-04T13:40:04;27.27;;;17.30;;
23474;SDS011;11910;52.086;21.066;2023-12-04T13:42:33;30.27;;;18.08;;
23474;SDS011;11910;52.086;21.066;2023-12-04T13:45:18;27.63;;;17.20;;
23474;SDS011;11910;52.086;21.066;2023-12-04T13:47:46;30.02;;;17.65;;
23474;SDS011;11910;52.086;21.066;2023-12-04T13:50:13;29.58;;;17.92;;
23474;SDS011;11910;52.086;21.066;2023-12-04T13:52:39;28.40;;;18.15;;
23474;SDS011;11910;52.086;21.066;2023-12-04T13:55:07;30.08;;;18.88;;
23474;SDS011;11910;52.086;21.066;2023-12-04T13:57:44;32.22;;;19.40;;
23474;SDS011;11910;52.086;21.066;2023-12-04T14:00:25;30.42;;;19.15;;
23474;SDS011;11910;52.086;21.066;2023-12-04T14:02:51;31.90;;;20.20;;
23474;SDS011;11910;52.086;21.066;2023-12-04T14:05:28;33.10;;;20.85;;
23474;SDS011;11910;52.086;21.066;2023-12-04T14:07:54;31.75;;;20.67;;
23474;SDS011;11910;52.086;21.066;2023-12-04T14:10:20;35.65;;;21.73;;